createdAt,value
2019-02-02T00:00:31.175Z,944.60
2019-02-02T00:01:31.191Z,944.61
2019-02-02T00:02:31.241Z,944.66
2019-02-02T00:03:31.275Z,944.65
2019-02-02T00:04:31.367Z,944.71
2019-02-02T00:05:31.371Z,944.74
2019-02-02T00:06:31.434Z,944.77
2019-02-02T00:07:31.443Z,944.74
2019-02-02T00:08:31.473Z,944.74
2019-02-02T00:09:31.521Z,944.71
2019-02-02T00:10:31.562Z,944.67
2019-02-02T00:11:31.623Z,944.73
2019-02-02T00:12:31.633Z,944.78
2019-02-02T00:13:31.683Z,944.81
2019-02-02T00:14:31.729Z,944.86
2019-02-02T00:15:31.769Z,944.89
2019-02-02T00:16:31.826Z,944.94
2019-02-02T00:17:31.836Z,944.93
2019-02-02T00:18:31.873Z,944.94
2019-02-02T00:19:31.915Z,944.96
2019-02-02T00:20:31.959Z,945.02
2019-02-02T00:21:32.022Z,944.99
2019-02-02T00:22:32.044Z,944.99
2019-02-02T00:23:32.083Z,944.96
2019-02-02T00:24:32.947Z,944.92
2019-02-02T00:25:32.152Z,944.87
2019-02-02T00:26:32.272Z,944.87
2019-02-02T00:27:41.002Z,944.89
2019-02-02T00:28:32.285Z,944.93
2019-02-02T00:29:33.254Z,944.97
2019-02-02T00:30:32.354Z,944.89
2019-02-02T00:31:32.424Z,944.83
2019-02-02T00:32:32.437Z,944.78
2019-02-02T00:33:32.482Z,944.74
2019-02-02T00:34:32.516Z,944.73
2019-02-02T00:35:32.561Z,944.70
2019-02-02T00:36:32.622Z,944.70
2019-02-02T00:37:32.647Z,944.69
2019-02-02T00:38:32.672Z,944.70
2019-02-02T00:39:32.715Z,944.64
2019-02-02T00:40:32.781Z,944.67
2019-02-02T00:41:32.823Z,944.71
2019-02-02T00:42:32.870Z,944.72
2019-02-02T00:43:32.879Z,944.74
2019-02-02T00:44:32.916Z,944.78
2019-02-02T00:45:33.752Z,944.76
2019-02-02T00:46:32.991Z,944.78
2019-02-02T00:47:33.053Z,944.81
2019-02-02T00:48:33.084Z,944.80
2019-02-02T00:49:33.116Z,944.84
2019-02-02T00:50:33.157Z,944.87
2019-02-02T00:51:33.201Z,944.88
2019-02-02T00:52:33.256Z,944.90
2019-02-02T00:53:33.278Z,944.92
2019-02-02T00:54:33.320Z,944.91
2019-02-02T00:55:33.358Z,944.90
2019-02-02T00:56:33.399Z,944.83
2019-02-02T00:57:33.463Z,944.89
2019-02-02T00:58:33.482Z,944.85
2019-02-02T00:59:33.520Z,944.85
2019-02-02T01:00:33.569Z,944.88
2019-02-02T01:01:33.623Z,944.95
2019-02-02T01:02:33.663Z,944.98
2019-02-02T01:03:33.704Z,945.00
2019-02-02T01:04:33.730Z,945.01
2019-02-02T01:05:33.775Z,945.06
2019-02-02T01:06:33.806Z,945.06
2019-02-02T01:07:33.846Z,945.09
2019-02-02T01:08:33.920Z,945.11
2019-02-02T01:09:33.942Z,945.18
2019-02-02T01:10:34.044Z,945.21
2019-02-02T01:11:34.012Z,945.22
2019-02-02T01:12:34.051Z,945.17
2019-02-02T01:13:34.102Z,945.06
2019-02-02T01:14:34.177Z,945.06
2019-02-02T01:15:34.295Z,944.94
2019-02-02T01:16:34.212Z,944.77
2019-02-02T01:17:34.240Z,944.86
2019-02-02T01:18:34.315Z,944.94
2019-02-02T01:19:34.339Z,945.05
2019-02-02T01:20:34.369Z,945.12
2019-02-02T01:21:34.409Z,945.13
2019-02-02T01:22:34.449Z,945.14
2019-02-02T01:23:34.532Z,945.14
2019-02-02T01:24:34.531Z,945.08
2019-02-02T01:25:34.571Z,945.09
2019-02-02T01:26:34.611Z,944.98
2019-02-02T01:27:34.663Z,944.88
2019-02-02T01:28:34.719Z,944.83
2019-02-02T01:29:34.728Z,944.80
2019-02-02T01:30:34.775Z,944.82
2019-02-02T01:31:34.829Z,944.84
2019-02-02T01:32:34.852Z,944.92
2019-02-02T01:33:34.922Z,945.02
2019-02-02T01:34:34.933Z,945.09
2019-02-02T01:35:34.972Z,945.12
2019-02-02T01:36:35.011Z,945.12
2019-02-02T01:37:35.059Z,945.12
2019-02-02T01:38:35.106Z,945.12
2019-02-02T01:39:35.130Z,945.13
2019-02-02T01:40:35.981Z,945.14
2019-02-02T01:41:35.210Z,945.18
2019-02-02T01:42:35.257Z,945.17
2019-02-02T01:43:35.314Z,945.19
2019-02-02T01:44:35.356Z,945.20
2019-02-02T01:45:35.449Z,945.21
2019-02-02T01:46:35.406Z,945.21
2019-02-02T01:47:35.451Z,945.19
2019-02-02T01:48:35.498Z,945.15
2019-02-02T01:49:35.568Z,945.12
2019-02-02T01:50:35.575Z,945.15
2019-02-02T01:51:35.622Z,945.16
2019-02-02T01:52:36.449Z,945.18
2019-02-02T01:53:35.689Z,945.18
2019-02-02T01:54:38.356Z,945.19
2019-02-02T01:55:35.765Z,945.18
2019-02-02T01:56:35.810Z,945.26
2019-02-02T01:57:35.846Z,945.27
2019-02-02T01:58:35.894Z,945.32
2019-02-02T01:59:35.987Z,945.34
2019-02-02T02:00:35.976Z,945.38
2019-02-02T02:01:36.009Z,945.41
2019-02-02T02:02:36.047Z,945.46
2019-02-02T02:03:36.101Z,945.49
2019-02-02T02:04:36.164Z,945.48
2019-02-02T02:05:36.186Z,945.50
2019-02-02T02:06:36.211Z,945.45
2019-02-02T02:07:36.252Z,945.41
2019-02-02T02:08:36.299Z,945.33
2019-02-02T02:09:36.353Z,945.26
2019-02-02T02:10:36.370Z,945.24
2019-02-02T02:11:36.411Z,945.29
2019-02-02T02:12:36.451Z,945.36
2019-02-02T02:13:36.489Z,945.39
2019-02-02T02:14:36.547Z,945.46
2019-02-02T02:15:36.597Z,945.50
2019-02-02T02:16:36.610Z,945.56
2019-02-02T02:17:36.652Z,945.58
2019-02-02T02:18:36.689Z,945.49
2019-02-02T02:19:36.732Z,945.49
2019-02-02T02:20:36.817Z,945.46
2019-02-02T02:21:36.810Z,945.46
2019-02-02T02:22:41.262Z,945.43
2019-02-02T02:23:36.892Z,945.41
2019-02-02T02:24:36.939Z,945.35
2019-02-02T02:25:37.003Z,945.38
2019-02-02T02:26:37.011Z,945.41
2019-02-02T02:27:37.091Z,945.43
2019-02-02T02:28:37.091Z,945.48
2019-02-02T02:29:37.131Z,945.50
2019-02-02T02:30:37.194Z,945.58
2019-02-02T02:31:37.242Z,945.63
2019-02-02T02:32:37.250Z,945.66
2019-02-02T02:33:37.298Z,945.66
2019-02-02T02:34:37.332Z,945.62
2019-02-02T02:35:37.373Z,945.64
2019-02-02T02:36:37.435Z,945.60
2019-02-02T02:37:37.457Z,945.56
2019-02-02T02:38:37.496Z,945.51
2019-02-02T02:39:37.545Z,945.48
2019-02-02T02:40:37.576Z,945.46
2019-02-02T02:41:37.653Z,945.45
2019-02-02T02:42:37.660Z,945.41
2019-02-02T02:43:37.695Z,945.38
2019-02-02T02:44:37.741Z,945.40
2019-02-02T02:45:37.790Z,945.47
2019-02-02T02:46:37.878Z,945.49
2019-02-02T02:47:37.856Z,945.50
2019-02-02T02:48:37.897Z,945.48
2019-02-02T02:49:37.936Z,945.45
2019-02-02T02:50:37.977Z,945.45
2019-02-02T02:51:38.043Z,945.52
2019-02-02T02:52:38.052Z,945.50
2019-02-02T02:53:38.098Z,945.49
2019-02-02T02:54:38.139Z,945.47
2019-02-02T02:55:38.181Z,945.48
2019-02-02T02:56:38.234Z,945.50
2019-02-02T02:57:38.255Z,945.53
2019-02-02T02:58:41.584Z,945.54
2019-02-02T02:59:38.348Z,945.58
2019-02-02T03:00:38.387Z,945.57
2019-02-02T03:01:38.415Z,945.67
2019-02-02T03:02:38.505Z,945.67
2019-02-02T03:03:38.497Z,945.68
2019-02-02T03:04:38.537Z,945.62
2019-02-02T03:05:38.577Z,945.64
2019-02-02T03:06:38.628Z,945.57
2019-02-02T03:07:38.692Z,945.53
2019-02-02T03:08:38.707Z,945.56
2019-02-02T03:09:38.738Z,945.56
2019-02-02T03:10:38.801Z,945.57
2019-02-02T03:11:38.819Z,945.54
2019-02-02T03:12:38.881Z,945.57
2019-02-02T03:13:38.925Z,945.55
2019-02-02T03:14:38.947Z,945.58
2019-02-02T03:15:38.979Z,945.61
2019-02-02T03:16:39.028Z,945.64
2019-02-02T03:17:39.067Z,945.72
2019-02-02T03:18:39.248Z,945.75
2019-02-02T03:19:39.144Z,945.77
2019-02-02T03:20:39.183Z,945.73
2019-02-02T03:21:39.229Z,945.70
2019-02-02T03:22:39.256Z,945.66
2019-02-02T03:23:39.345Z,945.66
2019-02-02T03:24:39.341Z,945.66
2019-02-02T03:25:39.397Z,945.63
2019-02-02T03:26:39.424Z,945.64
2019-02-02T03:27:39.466Z,945.62
2019-02-02T03:28:39.520Z,945.63
2019-02-02T03:29:39.557Z,945.57
2019-02-02T03:30:39.578Z,945.54
2019-02-02T03:31:39.639Z,945.56
2019-02-02T03:32:39.668Z,945.62
2019-02-02T03:33:39.732Z,945.63
2019-02-02T03:34:39.737Z,945.70
2019-02-02T03:35:39.779Z,945.73
2019-02-02T03:36:39.853Z,945.78
2019-02-02T03:37:39.860Z,945.78
2019-02-02T03:38:39.912Z,945.76
2019-02-02T03:39:39.957Z,945.82
2019-02-02T03:40:39.979Z,945.78
2019-02-02T03:41:40.015Z,945.76
2019-02-02T03:42:40.059Z,945.75
2019-02-02T03:43:40.158Z,945.75
2019-02-02T03:44:40.165Z,945.71
2019-02-02T03:45:40.867Z,945.62
2019-02-02T03:46:40.939Z,945.61
2019-02-02T03:47:40.264Z,945.56
2019-02-02T03:48:40.298Z,945.52
2019-02-02T03:49:40.369Z,945.44
2019-02-02T03:50:40.378Z,945.36
2019-02-02T03:51:40.420Z,945.31
2019-02-02T03:52:40.485Z,945.27
2019-02-02T03:53:41.395Z,945.32
2019-02-02T03:54:40.571Z,945.35
2019-02-02T03:55:40.600Z,945.44
2019-02-02T03:56:40.620Z,945.55
2019-02-02T03:57:40.657Z,945.75
2019-02-02T03:58:40.695Z,945.87
2019-02-02T03:59:40.753Z,946.01
2019-02-02T04:00:40.796Z,946.08
2019-02-02T04:01:40.821Z,946.12
2019-02-02T04:02:40.868Z,946.13
2019-02-02T04:03:40.896Z,946.06
2019-02-02T04:04:40.940Z,946.09
2019-02-02T04:05:41.006Z,946.09
2019-02-02T04:06:41.022Z,946.08
2019-02-02T04:07:41.067Z,946.13
2019-02-02T04:08:41.101Z,946.12
2019-02-02T04:09:41.135Z,946.07
2019-02-02T04:10:41.203Z,946.03
2019-02-02T04:11:43.449Z,945.96
2019-02-02T04:12:41.254Z,945.90
2019-02-02T04:13:41.297Z,945.82
2019-02-02T04:14:41.342Z,945.72
2019-02-02T04:15:41.403Z,945.61
2019-02-02T04:16:41.418Z,945.55
2019-02-02T04:17:41.463Z,945.49
2019-02-02T04:18:41.507Z,945.47
2019-02-02T04:19:41.549Z,945.51
2019-02-02T04:20:41.613Z,945.58
2019-02-02T04:21:41.655Z,945.60
2019-02-02T04:22:42.243Z,945.67
2019-02-02T04:23:41.729Z,945.72
2019-02-02T04:24:41.798Z,945.85
2019-02-02T04:25:41.783Z,946.05
2019-02-02T04:26:41.838Z,946.07
2019-02-02T04:27:41.995Z,946.14
2019-02-02T04:28:41.898Z,946.19
2019-02-02T04:29:41.940Z,946.27
2019-02-02T04:30:41.977Z,946.31
2019-02-02T04:31:42.046Z,946.36
2019-02-02T04:32:42.062Z,946.38
2019-02-02T04:33:42.103Z,946.34
2019-02-02T04:34:42.138Z,946.33
2019-02-02T04:35:42.179Z,946.35
2019-02-02T04:36:42.272Z,946.37
2019-02-02T04:37:42.264Z,946.34
2019-02-02T04:38:43.939Z,946.33
2019-02-02T04:39:42.343Z,946.34
2019-02-02T04:40:42.385Z,946.38
2019-02-02T04:41:42.499Z,946.44
2019-02-02T04:42:43.475Z,946.50
2019-02-02T04:43:42.503Z,946.42
2019-02-02T04:44:42.542Z,946.34
2019-02-02T04:45:42.592Z,946.34
2019-02-02T04:46:42.643Z,946.37
2019-02-02T04:47:42.665Z,946.38
2019-02-02T04:48:43.440Z,946.46
2019-02-02T04:49:42.745Z,946.50
2019-02-02T04:50:42.788Z,946.60
2019-02-02T04:51:42.853Z,946.62
2019-02-02T04:52:42.902Z,946.64
2019-02-02T04:53:42.905Z,946.64
2019-02-02T04:54:42.944Z,946.61
2019-02-02T04:55:42.990Z,946.54
2019-02-02T04:56:43.023Z,946.40
2019-02-02T04:57:43.086Z,946.30
2019-02-02T04:58:43.110Z,946.19
2019-02-02T04:59:54.281Z,946.13
2019-02-02T05:00:43.214Z,946.11
2019-02-02T05:01:43.970Z,946.10
2019-02-02T05:02:43.285Z,946.10
2019-02-02T05:03:43.319Z,946.13
2019-02-02T05:04:43.357Z,946.32
2019-02-02T05:05:43.386Z,946.46
2019-02-02T05:06:43.438Z,946.57
2019-02-02T05:07:43.498Z,946.59
2019-02-02T05:08:43.506Z,946.61
2019-02-02T05:09:43.556Z,946.57
2019-02-02T05:10:43.593Z,946.45
2019-02-02T05:11:43.629Z,946.25
2019-02-02T05:12:43.694Z,946.13
2019-02-02T05:13:43.730Z,946.06
2019-02-02T05:14:43.745Z,946.03
2019-02-02T05:15:43.794Z,946.02
2019-02-02T05:16:43.851Z,946.05
2019-02-02T05:17:43.931Z,946.06
2019-02-02T05:18:43.931Z,946.15
2019-02-02T05:19:43.950Z,946.19
2019-02-02T05:20:44.028Z,946.30
2019-02-02T05:21:44.026Z,946.38
2019-02-02T05:22:44.082Z,946.44
2019-02-02T05:23:44.144Z,946.47
2019-02-02T05:24:44.153Z,946.45
2019-02-02T05:25:44.205Z,946.50
2019-02-02T05:26:44.234Z,946.51
2019-02-02T05:27:44.280Z,946.59
2019-02-02T05:28:44.345Z,946.68
2019-02-02T05:29:44.970Z,946.73
2019-02-02T05:30:44.395Z,946.69
2019-02-02T05:31:44.441Z,946.66
2019-02-02T05:32:44.484Z,946.64
2019-02-02T05:33:45.469Z,946.63
2019-02-02T05:34:44.561Z,946.64
2019-02-02T05:35:44.600Z,946.65
2019-02-02T05:36:44.648Z,946.69
2019-02-02T05:37:44.686Z,946.72
2019-02-02T05:38:44.741Z,946.73
2019-02-02T05:39:44.763Z,946.68
2019-02-02T05:40:44.800Z,946.73
2019-02-02T05:41:44.845Z,946.72
2019-02-02T05:42:44.894Z,946.74
2019-02-02T05:43:45.003Z,946.70
2019-02-02T05:44:44.978Z,946.69
2019-02-02T05:45:45.003Z,946.67
2019-02-02T05:46:45.054Z,946.72
2019-02-02T05:47:45.146Z,946.81
2019-02-02T05:48:45.145Z,946.87
2019-02-02T05:49:45.216Z,946.85
2019-02-02T05:50:45.211Z,946.85
2019-02-02T05:51:45.249Z,946.81
2019-02-02T05:52:45.293Z,946.76
2019-02-02T05:53:45.328Z,946.84
2019-02-02T05:54:45.387Z,946.91
2019-02-02T05:55:45.422Z,947.03
2019-02-02T05:56:45.451Z,947.06
2019-02-02T05:57:45.494Z,947.08
2019-02-02T05:58:45.541Z,947.10
2019-02-02T05:59:52.448Z,947.08
2019-02-02T06:00:45.668Z,947.07
2019-02-02T06:01:45.650Z,947.13
2019-02-02T06:02:45.693Z,947.13
2019-02-02T06:03:45.756Z,947.12
2019-02-02T06:04:45.816Z,947.09
2019-02-02T06:05:45.828Z,947.09
2019-02-02T06:06:45.864Z,947.08
2019-02-02T06:07:46.470Z,947.13
2019-02-02T06:08:45.936Z,947.13
2019-02-02T06:09:46.016Z,947.11
2019-02-02T06:10:46.026Z,947.10
2019-02-02T06:11:46.060Z,947.10
2019-02-02T06:12:46.101Z,947.14
2019-02-02T06:13:46.137Z,947.12
2019-02-02T06:14:46.205Z,947.13
2019-02-02T06:15:46.239Z,947.20
2019-02-02T06:16:46.270Z,947.25
2019-02-02T06:17:46.302Z,947.27
2019-02-02T06:18:46.349Z,947.32
2019-02-02T06:19:46.446Z,947.35
2019-02-02T06:20:46.449Z,947.37
2019-02-02T06:21:46.471Z,947.43
2019-02-02T06:22:46.511Z,947.48
2019-02-02T06:23:46.550Z,947.43
2019-02-02T06:24:46.584Z,947.44
2019-02-02T06:25:46.654Z,947.38
2019-02-02T06:26:46.675Z,947.41
2019-02-02T06:27:46.706Z,947.40
2019-02-02T06:28:46.760Z,947.38
2019-02-02T06:29:46.793Z,947.36
2019-02-02T06:30:46.864Z,947.34
2019-02-02T06:31:46.876Z,947.33
2019-02-02T06:32:46.916Z,947.32
2019-02-02T06:33:46.953Z,947.32
2019-02-02T06:34:47.495Z,947.35
2019-02-02T06:35:47.062Z,947.41
2019-02-02T06:36:47.087Z,947.43
2019-02-02T06:37:47.132Z,947.43
2019-02-02T06:38:47.166Z,947.46
2019-02-02T06:39:47.240Z,947.46
2019-02-02T06:40:47.265Z,947.49
2019-02-02T06:41:47.286Z,947.50
2019-02-02T06:42:47.331Z,947.52
2019-02-02T06:43:47.362Z,947.56
2019-02-02T06:44:47.401Z,947.58
2019-02-02T06:45:47.483Z,947.59
2019-02-02T06:46:47.489Z,947.63
2019-02-02T06:47:47.522Z,947.59
2019-02-02T06:48:47.569Z,947.58
2019-02-02T06:49:47.625Z,947.61
2019-02-02T06:50:47.682Z,947.62
2019-02-02T06:51:48.471Z,947.64
2019-02-02T06:52:47.748Z,947.65
2019-02-02T06:53:47.769Z,947.69
2019-02-02T06:54:47.810Z,947.72
2019-02-02T06:55:47.859Z,947.72
2019-02-02T06:56:48.775Z,947.76
2019-02-02T06:57:47.975Z,947.79
2019-02-02T06:58:47.968Z,947.81
2019-02-02T06:59:48.012Z,947.82
2019-02-02T07:00:48.067Z,947.84
2019-02-02T07:01:48.301Z,947.81
2019-02-02T07:02:48.155Z,947.83
2019-02-02T07:03:48.176Z,947.85
2019-02-02T07:04:48.222Z,947.89
2019-02-02T07:05:48.274Z,947.91
2019-02-02T07:06:48.359Z,947.92
2019-02-02T07:07:48.363Z,947.90
2019-02-02T07:08:48.382Z,947.91
2019-02-02T07:09:48.420Z,947.94
2019-02-02T07:10:48.474Z,947.94
2019-02-02T07:11:48.505Z,947.97
2019-02-02T07:12:48.574Z,947.95
2019-02-02T07:13:48.590Z,947.95
2019-02-02T07:14:49.468Z,947.96
2019-02-02T07:15:48.664Z,948.01
2019-02-02T07:16:49.511Z,947.98
2019-02-02T07:17:48.749Z,947.97
2019-02-02T07:18:48.787Z,948.02
2019-02-02T07:19:48.835Z,948.08
2019-02-02T07:20:48.869Z,948.13
2019-02-02T07:21:48.983Z,948.18
2019-02-02T07:22:48.960Z,948.19
2019-02-02T07:23:49.000Z,948.18
2019-02-02T07:24:50.184Z,948.21
2019-02-02T07:25:49.073Z,948.27
2019-02-02T07:26:50.970Z,948.28
2019-02-02T07:27:49.177Z,948.34
2019-02-02T07:28:49.198Z,948.32
2019-02-02T07:29:49.235Z,948.37
2019-02-02T07:30:49.279Z,948.37
2019-02-02T07:31:49.314Z,948.41
2019-02-02T07:32:49.498Z,948.43
2019-02-02T07:33:49.414Z,948.47
2019-02-02T07:34:49.487Z,948.49
2019-02-02T07:35:49.479Z,948.47
2019-02-02T07:36:49.520Z,948.49
2019-02-02T07:37:49.564Z,948.55
2019-02-02T07:38:49.629Z,948.58
2019-02-02T07:39:49.646Z,948.59
2019-02-02T07:40:49.689Z,948.59
2019-02-02T07:41:49.730Z,948.63
2019-02-02T07:42:49.789Z,948.66
2019-02-02T07:43:49.803Z,948.69
2019-02-02T07:44:49.844Z,948.68
2019-02-02T07:45:49.924Z,948.73
2019-02-02T07:46:49.925Z,948.77
2019-02-02T07:47:49.970Z,948.80
2019-02-02T07:48:50.009Z,948.76
2019-02-02T07:49:50.140Z,948.84
2019-02-02T07:50:50.122Z,948.84
2019-02-02T07:51:50.149Z,948.88
2019-02-02T07:52:50.177Z,948.88
2019-02-02T07:53:50.238Z,948.89
2019-02-02T07:54:50.276Z,948.93
2019-02-02T07:55:50.296Z,948.95
2019-02-02T07:56:50.340Z,948.99
2019-02-02T07:57:50.394Z,948.98
2019-02-02T07:58:50.422Z,949.01
2019-02-02T07:59:50.456Z,949.01
2019-02-02T08:00:50.654Z,949.04
2019-02-02T08:01:50.541Z,949.06
2019-02-02T08:02:50.585Z,949.06
2019-02-02T08:03:50.624Z,949.09
2019-02-02T08:04:50.665Z,949.08
2019-02-02T08:05:50.741Z,949.13
2019-02-02T08:06:50.866Z,949.16
2019-02-02T08:07:50.797Z,949.16
2019-02-02T08:08:50.854Z,949.14
2019-02-02T08:09:50.874Z,949.14
2019-02-02T08:10:50.908Z,949.14
2019-02-02T08:11:50.973Z,949.16
2019-02-02T08:12:50.995Z,949.16
2019-02-02T08:13:51.070Z,949.17
2019-02-02T08:14:51.972Z,949.18
2019-02-02T08:15:51.168Z,949.22
2019-02-02T08:16:52.645Z,949.23
2019-02-02T08:17:51.196Z,949.25
2019-02-02T08:18:51.278Z,949.31
2019-02-02T08:19:51.295Z,949.34
2019-02-02T08:20:51.334Z,949.32
2019-02-02T08:21:51.359Z,949.34
2019-02-02T08:22:51.402Z,949.40
2019-02-02T08:23:51.469Z,949.41
2019-02-02T08:24:51.523Z,949.44
2019-02-02T08:25:51.537Z,949.47
2019-02-02T08:26:51.574Z,949.49
2019-02-02T08:27:51.614Z,949.53
2019-02-02T08:28:51.662Z,949.59
2019-02-02T08:29:51.727Z,949.58
2019-02-02T08:30:52.833Z,949.61
2019-02-02T08:31:51.780Z,949.59
2019-02-02T08:32:51.831Z,949.61
2019-02-02T08:33:51.886Z,949.60
2019-02-02T08:34:51.900Z,949.58
2019-02-02T08:35:51.965Z,949.59
2019-02-02T08:36:51.986Z,949.59
2019-02-02T08:37:52.030Z,949.58
2019-02-02T08:38:52.060Z,949.62
2019-02-02T08:39:52.111Z,949.63
2019-02-02T08:40:52.301Z,949.63
2019-02-02T08:41:52.195Z,949.65
2019-02-02T08:42:52.236Z,949.67
2019-02-02T08:43:52.289Z,949.70
2019-02-02T08:44:52.316Z,949.64
2019-02-02T08:45:52.368Z,949.67
2019-02-02T08:46:52.397Z,949.68
2019-02-02T08:47:52.432Z,949.76
2019-02-02T08:48:52.476Z,949.79
2019-02-02T08:49:52.563Z,949.81
2019-02-02T08:50:52.589Z,949.84
2019-02-02T08:51:52.596Z,949.86
2019-02-02T08:52:52.643Z,949.87
2019-02-02T08:53:52.686Z,949.86
2019-02-02T08:54:52.721Z,949.89
2019-02-02T08:55:52.817Z,949.89
2019-02-02T08:56:52.848Z,949.96
2019-02-02T08:57:53.470Z,949.91
2019-02-02T08:58:52.897Z,949.94
2019-02-02T08:59:52.934Z,949.96
2019-02-02T09:01:03.383Z,950.02
2019-02-02T09:01:53.017Z,950.02
2019-02-02T09:02:53.054Z,950.01
2019-02-02T09:03:53.146Z,950.04
2019-02-02T09:04:53.132Z,950.11
2019-02-02T09:05:53.236Z,950.07
2019-02-02T09:06:53.973Z,950.09
2019-02-02T09:07:53.264Z,950.12
2019-02-02T09:08:53.301Z,950.11
2019-02-02T09:09:53.356Z,950.15
2019-02-02T09:10:54.001Z,950.19
2019-02-02T09:11:53.458Z,950.21
2019-02-02T09:12:53.479Z,950.19
2019-02-02T09:13:53.506Z,950.21
2019-02-02T09:14:53.577Z,950.19
2019-02-02T09:15:53.604Z,950.21
2019-02-02T09:16:53.660Z,950.19
2019-02-02T09:17:53.688Z,950.21
2019-02-02T09:18:53.730Z,950.23
2019-02-02T09:19:53.758Z,950.30
2019-02-02T09:20:53.813Z,950.31
2019-02-02T09:21:53.867Z,950.33
2019-02-02T09:23:04.107Z,950.33
2019-02-02T09:23:53.931Z,950.35
2019-02-02T09:24:53.961Z,950.36
2019-02-02T09:25:54.016Z,950.33
2019-02-02T09:26:54.063Z,950.37
2019-02-02T09:27:54.086Z,950.41
2019-02-02T09:28:54.127Z,950.43
2019-02-02T09:29:54.173Z,950.43
2019-02-02T09:30:54.213Z,950.41
2019-02-02T09:31:54.395Z,950.46
2019-02-02T09:32:54.294Z,950.44
2019-02-02T09:33:54.336Z,950.42
2019-02-02T09:34:54.372Z,950.44
2019-02-02T09:35:54.419Z,950.44
2019-02-02T09:36:54.510Z,950.49
2019-02-02T09:37:54.518Z,950.50
2019-02-02T09:38:54.553Z,950.54
2019-02-02T09:39:54.583Z,950.54
2019-02-02T09:40:54.632Z,950.53
2019-02-02T09:41:54.737Z,950.54
2019-02-02T09:42:55.473Z,950.56
2019-02-02T09:43:54.763Z,950.58
2019-02-02T09:44:54.807Z,950.59
2019-02-02T09:45:54.932Z,950.60
2019-02-02T09:46:54.907Z,950.61
2019-02-02T09:47:54.969Z,950.61
2019-02-02T09:48:57.661Z,950.60
2019-02-02T09:49:54.999Z,950.61
2019-02-02T09:50:55.064Z,950.63
2019-02-02T09:51:55.079Z,950.64
2019-02-02T09:52:55.242Z,950.63
2019-02-02T09:53:55.175Z,950.65
2019-02-02T09:54:55.213Z,950.64
2019-02-02T09:55:55.253Z,950.70
2019-02-02T09:56:55.286Z,950.74
2019-02-02T09:57:55.664Z,950.78
2019-02-02T09:58:55.376Z,950.78
2019-02-02T09:59:55.500Z,950.86
2019-02-02T10:00:55.450Z,950.84
2019-02-02T10:01:55.510Z,950.84
2019-02-02T10:02:55.575Z,950.86
2019-02-02T10:03:55.573Z,950.86
2019-02-02T10:04:55.627Z,950.89
2019-02-02T10:05:55.656Z,950.88
2019-02-02T10:06:55.692Z,950.89
2019-02-02T10:07:55.764Z,950.89
2019-02-02T10:08:55.783Z,950.91
2019-02-02T10:09:55.832Z,950.92
2019-02-02T10:10:56.004Z,950.97
2019-02-02T10:11:55.912Z,950.99
2019-02-02T10:12:56.970Z,950.99
2019-02-02T10:13:56.021Z,951.00
2019-02-02T10:14:56.028Z,951.00
2019-02-02T10:15:56.078Z,951.05
2019-02-02T10:16:56.123Z,951.03
2019-02-02T10:17:56.158Z,951.01
2019-02-02T10:18:56.226Z,951.01
2019-02-02T10:19:56.256Z,950.99
2019-02-02T10:21:03.626Z,950.99
2019-02-02T10:21:56.324Z,950.95
2019-02-02T10:22:56.369Z,950.93
2019-02-02T10:23:56.434Z,950.97
2019-02-02T10:24:56.461Z,950.97
2019-02-02T10:25:56.485Z,950.94
2019-02-02T10:26:56.530Z,950.93
2019-02-02T10:27:56.583Z,950.96
2019-02-02T10:28:56.644Z,950.93
2019-02-02T10:29:56.692Z,950.91
2019-02-02T10:30:56.696Z,950.93
2019-02-02T10:31:56.793Z,950.90
2019-02-02T10:32:56.784Z,950.90
2019-02-02T10:33:57.501Z,950.89
2019-02-02T10:34:57.521Z,950.81
2019-02-02T10:35:56.910Z,950.85
2019-02-02T10:36:56.974Z,950.86
2019-02-02T10:37:56.996Z,950.80
2019-02-02T10:38:57.045Z,950.80
2019-02-02T10:39:57.496Z,950.81
2019-02-02T10:40:57.241Z,950.82
2019-02-02T10:41:57.151Z,950.82
2019-02-02T10:42:57.195Z,950.82
2019-02-02T10:43:57.261Z,950.77
2019-02-02T10:44:57.969Z,950.78
2019-02-02T10:45:57.324Z,950.75
2019-02-02T10:46:57.362Z,950.75
2019-02-02T10:47:57.415Z,950.79
2019-02-02T10:48:57.475Z,950.76
2019-02-02T10:49:57.501Z,950.72
2019-02-02T10:50:58.296Z,950.72
2019-02-02T10:51:57.569Z,950.67
2019-02-02T10:52:57.611Z,950.66
2019-02-02T10:53:57.676Z,950.69
2019-02-02T10:54:57.704Z,950.66
2019-02-02T10:55:58.314Z,950.68
2019-02-02T10:56:57.779Z,950.67
2019-02-02T10:57:57.827Z,950.66
2019-02-02T10:58:57.872Z,950.65
2019-02-02T10:59:57.936Z,950.61
2019-02-02T11:00:57.954Z,950.58
2019-02-02T11:01:58.012Z,950.55
2019-02-02T11:02:58.039Z,950.60
2019-02-02T11:03:58.077Z,950.52
2019-02-02T11:04:58.426Z,950.50
2019-02-02T11:05:58.213Z,950.47
2019-02-02T11:06:58.229Z,950.46
2019-02-02T11:07:58.278Z,950.48
2019-02-02T11:08:58.375Z,950.42
2019-02-02T11:09:58.374Z,950.38
2019-02-02T11:10:58.478Z,950.38
2019-02-02T11:11:58.437Z,950.32
2019-02-02T11:12:58.575Z,950.28
2019-02-02T11:13:58.662Z,950.28
2019-02-02T11:14:58.593Z,950.25
2019-02-02T11:15:58.605Z,950.23
2019-02-02T11:16:58.692Z,950.21
2019-02-02T11:17:58.743Z,950.19
2019-02-02T11:18:58.795Z,950.18
2019-02-02T11:19:58.835Z,950.19
2019-02-02T11:20:58.945Z,950.26
2019-02-02T11:21:58.953Z,950.28
2019-02-02T11:22:58.962Z,950.26
2019-02-02T11:23:59.011Z,950.22
2019-02-02T11:24:59.074Z,950.31
2019-02-02T11:25:59.129Z,950.22
2019-02-02T11:26:59.194Z,950.28
2019-02-02T11:27:59.267Z,950.29
2019-02-02T11:28:59.212Z,950.29
2019-02-02T11:29:59.278Z,950.28
2019-02-02T11:30:59.334Z,950.26
2019-02-02T11:32:02.875Z,950.29
2019-02-02T11:32:59.407Z,950.28
2019-02-02T11:33:59.446Z,950.30
2019-02-02T11:34:59.557Z,950.25
2019-02-02T11:35:59.568Z,950.24
2019-02-02T11:37:03.482Z,950.19
2019-02-02T11:37:59.646Z,950.17
2019-02-02T11:38:59.791Z,950.13
2019-02-02T11:39:59.728Z,950.04
2019-02-02T11:40:59.806Z,950.05
2019-02-02T11:42:00.305Z,949.97
2019-02-02T11:42:59.886Z,949.95
2019-02-02T11:43:59.913Z,949.96
2019-02-02T11:44:59.977Z,949.98
2019-02-02T11:46:00.038Z,950.00
2019-02-02T11:47:00.080Z,949.94
2019-02-02T11:48:00.112Z,949.94
2019-02-02T11:49:00.174Z,950.00
2019-02-02T11:50:00.314Z,949.99
2019-02-02T11:51:00.258Z,950.01
2019-02-02T11:52:00.970Z,950.01
2019-02-02T11:53:00.335Z,950.05
2019-02-02T11:54:00.365Z,950.04
2019-02-02T11:55:00.416Z,950.07
2019-02-02T11:56:00.472Z,950.05
2019-02-02T11:57:00.548Z,950.06
2019-02-02T11:58:00.557Z,950.09
2019-02-02T11:59:00.590Z,950.02
2019-02-02T12:00:00.713Z,950.02
2019-02-02T12:01:00.684Z,949.98
2019-02-02T12:02:00.749Z,949.97
2019-02-02T12:03:00.777Z,949.93
2019-02-02T12:04:00.821Z,949.92
2019-02-02T12:05:00.860Z,949.98
2019-02-02T12:06:00.911Z,949.99
2019-02-02T12:07:00.969Z,949.98
2019-02-02T12:08:01.029Z,950.03
2019-02-02T12:09:01.045Z,950.05
2019-02-02T12:10:01.094Z,950.06
2019-02-02T12:11:01.130Z,950.11
2019-02-02T12:12:01.181Z,950.07
2019-02-02T12:13:01.264Z,949.99
2019-02-02T12:14:01.298Z,950.05
2019-02-02T12:15:01.322Z,949.97
2019-02-02T12:16:01.360Z,949.93
2019-02-02T12:17:01.397Z,949.94
2019-02-02T12:18:01.495Z,949.90
2019-02-02T12:19:01.494Z,949.90
2019-02-02T12:20:01.530Z,949.88
2019-02-02T12:21:01.577Z,949.86
2019-02-02T12:22:02.473Z,949.86
2019-02-02T12:23:01.680Z,949.87
2019-02-02T12:24:12.759Z,949.87
2019-02-02T12:25:02.208Z,949.84
2019-02-02T12:26:01.815Z,949.90
2019-02-02T12:27:01.846Z,949.87
2019-02-02T12:28:01.938Z,949.88
2019-02-02T12:29:02.475Z,949.85